Time;durP1;ratioP1;P1;durP2;ratioP2;P2;SDS_P1;SDS_P2;PMS_P1;PMS_P2;Temp;Humidity;BMP_temperature;BMP_pressure;BME280_temperature;BME280_humidity;BME280_pressure;Samples;Min_cycle;Max_cycle;Signal;HPM_P1;HPM_P2
2022/10/24 00:03:30;;;;;;;11.20;4.23;;;18.30;99.90;;;;;;8174246;71;26261;-59
2022/10/24 00:13:33;;;;;;;8.47;3.77;;;18.30;99.90;;;;;;8166757;71;26767;-59
2022/10/24 00:23:35;;;;;;;9.93;3.93;;;18.30;99.90;;;;;;8193025;71;26727;-59
2022/10/24 00:33:38;;;;;;;15.20;3.80;;;18.30;99.90;;;;;;8177798;71;26736;-60
2022/10/24 00:43:40;;;;;;;15.80;3.77;;;18.30;99.90;;;;;;8208251;71;26272;-60
2022/10/24 00:53:46;;;;;;;14.43;4.03;;;18.30;99.90;;;;;;8202696;71;26335;-60
2022/10/24 01:03:48;;;;;;;9.97;4.10;;;18.30;99.90;;;;;;8187502;71;26319;-60
2022/10/24 01:14:15;;;;;;;8.87;3.57;;;18.30;99.90;;;;;;8207308;71;27154;-60
2022/10/24 01:24:32;;;;;;;19.83;4.40;;;18.30;99.90;;;;;;8191008;71;26350;-60
2022/10/24 01:34:43;;;;;;;18.53;3.50;;;18.30;99.90;;;;;;8122236;71;26218;-61
2022/10/24 01:44:49;;;;;;;8.53;3.17;;;18.30;99.90;;;;;;8148903;71;26816;-60
2022/10/24 01:54:52;;;;;;;9.57;3.37;;;18.30;99.90;;;;;;8196095;71;26237;-58
2022/10/24 02:05:09;;;;;;;10.20;3.33;;;18.30;99.90;;;;;;8153183;71;26321;-58
2022/10/24 02:15:14;;;;;;;14.70;3.33;;;18.30;99.90;;;;;;8167452;71;26282;-58
2022/10/24 02:25:23;;;;;;;12.53;4.00;;;18.30;99.90;;;;;;8176570;71;26261;-56
2022/10/24 02:35:30;;;;;;;16.67;4.30;;;18.30;99.90;;;;;;8192912;71;26208;-58
2022/10/24 02:45:35;;;;;;;14.23;4.33;;;18.30;99.90;;;;;;8144467;71;26281;-57
2022/10/24 02:55:38;;;;;;;20.03;3.77;;;18.30;99.90;;;;;;8134304;71;26221;-58
2022/10/24 03:05:40;;;;;;;19.77;8.90;;;18.20;99.90;;;;;;8125407;71;26331;-59
2022/10/24 03:15:43;;;;;;;14.70;3.40;;;18.30;99.90;;;;;;8171093;71;26994;-58
2022/10/24 03:25:46;;;;;;;14.60;3.60;;;18.30;99.90;;;;;;8139860;71;26804;-56
2022/10/24 03:35:53;;;;;;;12.90;3.53;;;18.20;99.90;;;;;;8156277;71;26342;-59
2022/10/24 03:45:56;;;;;;;9.67;3.33;;;18.20;99.90;;;;;;8133415;71;26271;-59
2022/10/24 03:55:59;;;;;;;9.33;3.43;;;18.20;99.90;;;;;;8134104;71;26370;-60
2022/10/24 04:06:01;;;;;;;10.40;3.27;;;18.20;99.90;;;;;;8158168;71;26313;-60
2022/10/24 04:16:04;;;;;;;14.47;4.60;;;18.20;99.90;;;;;;8139142;71;26352;-57
2022/10/24 04:26:08;;;;;;;10.47;2.97;;;18.20;99.90;;;;;;8176408;71;26782;-60
2022/10/24 04:36:10;;;;;;;12.33;3.27;;;18.20;99.90;;;;;;8222099;71;26296;-60
2022/10/24 04:46:13;;;;;;;11.17;3.30;;;18.10;99.90;;;;;;8208401;71;27033;-58
2022/10/24 04:56:15;;;;;;;11.87;3.63;;;18.10;99.90;;;;;;8145947;71;26329;-59
2022/10/24 05:06:18;;;;;;;23.37;4.47;;;18.10;99.90;;;;;;8138141;71;26226;-59
2022/10/24 05:16:20;;;;;;;20.83;4.33;;;18.10;99.90;;;;;;8132529;71;26817;-57
2022/10/24 05:26:23;;;;;;;16.57;3.83;;;18.00;99.90;;;;;;8196828;71;26334;-60
2022/10/24 05:36:25;;;;;;;12.63;4.23;;;18.00;99.90;;;;;;8151080;71;26713;-59
2022/10/24 05:46:28;;;;;;;13.70;4.20;;;18.10;99.90;;;;;;8159085;71;26282;-58
2022/10/24 05:56:30;;;;;;;9.70;3.97;;;18.00;99.90;;;;;;8191039;72;26266;-59
2022/10/24 06:06:35;;;;;;;10.07;4.40;;;18.00;99.90;;;;;;8216197;71;26812;-60
2022/10/24 06:16:37;;;;;;;10.23;3.17;;;18.00;99.90;;;;;;8222387;71;26352;-59
2022/10/24 06:26:40;;;;;;;11.97;3.07;;;18.00;99.90;;;;;;8213261;71;26797;-59
2022/10/24 06:36:42;;;;;;;20.67;4.60;;;18.10;99.90;;;;;;8217106;71;26320;-60
2022/10/24 06:46:45;;;;;;;30.43;5.20;;;18.10;99.90;;;;;;8233247;71;26211;-60
2022/10/24 06:56:48;;;;;;;16.60;4.13;;;18.10;99.90;;;;;;8178310;71;26340;-60
2022/10/24 07:06:50;;;;;;;26.53;4.40;;;18.10;99.90;;;;;;8189505;71;26816;-60
2022/10/24 07:16:53;;;;;;;14.63;3.63;;;18.00;99.90;;;;;;8173924;70;26245;-60
2022/10/24 07:26:55;;;;;;;16.03;3.60;;;18.10;99.90;;;;;;8198989;71;26801;-60
2022/10/24 07:36:58;;;;;;;12.47;3.03;;;18.00;99.90;;;;;;8213714;71;26218;-60
2022/10/24 07:47:00;;;;;;;17.20;3.33;;;18.00;99.90;;;;;;8202428;71;26292;-60
2022/10/24 07:57:03;;;;;;;15.93;3.40;;;18.10;99.90;;;;;;8176086;71;26762;-57
2022/10/24 08:07:11;;;;;;;8.03;2.90;;;18.10;99.90;;;;;;8154329;71;26277;-58
2022/10/24 08:17:10;;;;;;;12.70;3.13;;;18.10;99.90;;;;;;8225952;71;26266;-60
2022/10/24 08:27:14;;;;;;;13.07;3.00;;;18.20;99.90;;;;;;8165957;71;27099;-59
2022/10/24 08:37:16;;;;;;;22.50;5.40;;;18.20;99.90;;;;;;8148429;71;26393;-59
2022/10/24 08:47:39;;;;;;;24.00;6.40;;;18.30;99.90;;;;;;8174057;71;26314;-60
2022/10/24 08:57:44;;;;;;;20.03;4.53;;;18.50;99.90;;;;;;8223437;72;26343;-61
2022/10/24 09:07:49;;;;;;;19.70;5.07;;;18.50;99.90;;;;;;8180170;71;27374;-61
2022/10/24 09:17:54;;;;;;;24.13;4.50;;;18.50;99.90;;;;;;8140547;71;26693;-61
2022/10/24 09:27:59;;;;;;;14.40;3.20;;;18.60;99.90;;;;;;8179211;71;26233;-60
2022/10/24 09:38:25;;;;;;;18.97;3.83;;;18.80;99.90;;;;;;8193203;71;26222;-59
2022/10/24 09:48:39;;;;;;;14.97;3.37;;;18.90;99.90;;;;;;8163363;71;26218;-60
2022/10/24 09:58:42;;;;;;;22.83;5.50;;;19.00;99.90;;;;;;8154454;71;26295;-59
2022/10/24 10:08:53;;;;;;;11.63;3.50;;;19.20;99.90;;;;;;8133272;71;26260;-61
2022/10/24 10:19:05;;;;;;;13.10;3.03;;;19.20;99.90;;;;;;8212086;71;26355;-61
2022/10/24 10:29:20;;;;;;;11.20;3.73;;;19.20;99.90;;;;;;8168371;71;26610;-60
2022/10/24 10:39:29;;;;;;;11.17;3.00;;;19.20;99.90;;;;;;8181896;71;26257;-60
2022/10/24 10:49:34;;;;;;;8.63;2.47;;;19.20;99.90;;;;;;8189116;71;26320;-61
2022/10/24 10:59:39;;;;;;;14.50;2.73;;;19.20;99.90;;;;;;8178985;71;26257;-61
2022/10/24 11:09:51;;;;;;;5.13;1.87;;;19.20;99.90;;;;;;8205572;71;26334;-60
2022/10/24 11:20:25;;;;;;;4.40;1.87;;;19.30;99.90;;;;;;8160500;71;26647;-60
2022/10/24 11:30:50;;;;;;;12.57;2.07;;;19.30;99.90;;;;;;8114116;71;26268;-59
2022/10/24 11:40:56;;;;;;;10.27;2.13;;;19.30;99.90;;;;;;8178952;71;26856;-61
2022/10/24 11:51:04;;;;;;;10.33;2.33;;;19.30;99.90;;;;;;8221223;71;26817;-58
2022/10/24 12:01:25;;;;;;;13.23;4.10;;;19.30;99.90;;;;;;8216046;71;26203;-61
2022/10/24 12:11:50;;;;;;;16.17;3.60;;;19.30;99.90;;;;;;8183126;71;26280;-60
2022/10/24 12:21:56;;;;;;;18.53;5.03;;;19.30;99.90;;;;;;8177647;71;26759;-58
2022/10/24 12:31:59;;;;;;;14.93;3.73;;;19.30;99.90;;;;;;8211712;71;26210;-61
2022/10/24 12:42:02;;;;;;;15.90;3.57;;;19.30;99.90;;;;;;8218469;71;27384;-59
2022/10/24 12:52:22;;;;;;;13.10;2.77;;;19.30;99.90;;;;;;8192805;71;26246;-59
2022/10/24 13:02:34;;;;;;;8.27;2.47;;;19.30;99.90;;;;;;8105815;71;26267;-60
2022/10/24 13:12:55;;;;;;;8.20;1.93;;;19.30;99.90;;;;;;8218980;71;26201;-59
2022/10/24 13:23:03;;;;;;;10.93;2.20;;;19.30;99.90;;;;;;8215301;71;26284;-58
2022/10/24 13:33:35;;;;;;;6.50;1.80;;;19.30;99.90;;;;;;8213175;71;26782;-58
2022/10/24 13:43:40;;;;;;;10.03;2.43;;;19.30;99.90;;;;;;8228597;71;26206;-60
2022/10/24 13:53:52;;;;;;;5.37;2.13;;;19.30;99.90;;;;;;8217078;71;26820;-60
2022/10/24 14:03:55;;;;;;;6.80;1.80;;;19.30;99.90;;;;;;8220006;71;26319;-61
2022/10/24 14:14:01;;;;;;;12.23;1.50;;;19.20;99.90;;;;;;8164991;71;26203;-60
2022/10/24 14:24:07;;;;;;;12.63;2.00;;;19.20;99.90;;;;;;8169454;72;26735;-62
2022/10/24 14:34:12;;;;;;;5.80;2.13;;;19.20;99.90;;;;;;8192013;71;26708;-61
2022/10/24 14:44:16;;;;;;;7.90;2.00;;;19.20;99.90;;;;;;8167272;71;26218;-60
2022/10/24 14:54:25;;;;;;;9.20;1.63;;;19.20;99.90;;;;;;8159313;71;26254;-60
2022/10/24 15:04:40;;;;;;;12.67;1.70;;;19.20;99.90;;;;;;8174335;71;27065;-59
2022/10/24 15:14:47;;;;;;;7.43;1.70;;;19.20;99.90;;;;;;8189885;71;26295;-60
2022/10/24 15:24:49;;;;;;;7.10;1.90;;;19.20;99.90;;;;;;8184575;71;26222;-60
2022/10/24 15:34:54;;;;;;;11.10;1.80;;;19.10;99.90;;;;;;8192573;71;26769;-59
2022/10/24 15:44:57;;;;;;;9.43;2.20;;;19.10;99.90;;;;;;8162736;72;26243;-61
2022/10/24 15:54:59;;;;;;;12.30;3.17;;;19.10;99.90;;;;;;8203170;71;26282;-59
2022/10/24 16:05:02;;;;;;;11.00;4.17;;;19.10;99.90;;;;;;8158399;71;26226;-60
2022/10/24 16:15:05;;;;;;;18.80;2.53;;;19.00;99.90;;;;;;8217540;71;26699;-60
2022/10/24 16:25:09;;;;;;;10.00;2.17;;;19.00;99.90;;;;;;8217622;71;26688;-59
2022/10/24 16:35:17;;;;;;;13.90;3.30;;;19.00;99.90;;;;;;8210269;71;26238;-60
2022/10/24 16:45:21;;;;;;;7.00;1.70;;;18.90;99.90;;;;;;8187606;71;26284;-59
2022/10/24 16:55:24;;;;;;;9.90;2.30;;;18.90;99.90;;;;;;8225369;72;26235;-59
2022/10/24 17:05:28;;;;;;;17.00;3.10;;;18.90;99.90;;;;;;8221564;71;26230;-60
2022/10/24 17:15:30;;;;;;;15.60;3.93;;;18.90;99.90;;;;;;8212683;71;26207;-59
2022/10/24 17:25:33;;;;;;;29.90;5.93;;;18.80;99.90;;;;;;8224447;71;26308;-60
2022/10/24 17:35:38;;;;;;;22.83;4.97;;;18.80;99.90;;;;;;8203703;71;26215;-62
2022/10/24 17:45:42;;;;;;;15.93;5.53;;;18.80;99.90;;;;;;8236044;71;26299;-63
2022/10/24 17:55:45;;;;;;;21.70;5.23;;;18.80;99.90;;;;;;8226123;71;26281;-60
2022/10/24 18:05:47;;;;;;;13.40;4.87;;;18.80;99.90;;;;;;8226340;71;26949;-61
2022/10/24 18:15:50;;;;;;;14.83;3.90;;;18.70;99.90;;;;;;8228133;71;26243;-61
2022/10/24 18:25:52;;;;;;;32.87;4.20;;;18.80;99.90;;;;;;8204530;71;26222;-59
2022/10/24 18:35:55;;;;;;;15.57;3.90;;;18.80;99.90;;;;;;8212584;72;26203;-59
2022/10/24 18:45:58;;;;;;;20.00;3.60;;;18.70;99.90;;;;;;8186665;71;26303;-58
2022/10/24 18:56:01;;;;;;;21.20;4.00;;;18.70;99.90;;;;;;8193769;71;26266;-58
2022/10/24 19:06:23;;;;;;;16.53;3.87;;;18.70;99.90;;;;;;8191189;71;26297;-58
2022/10/24 19:16:26;;;;;;;16.20;3.23;;;18.70;99.90;;;;;;8228088;71;26331;-58
2022/10/24 19:26:28;;;;;;;13.00;3.87;;;18.70;99.90;;;;;;8227537;71;26266;-60
2022/10/24 19:36:32;;;;;;;14.23;2.60;;;18.60;99.90;;;;;;8223729;71;26343;-59
2022/10/24 19:46:34;;;;;;;12.50;2.77;;;18.60;99.90;;;;;;8222519;71;26277;-59
2022/10/24 19:56:37;;;;;;;15.13;2.67;;;18.60;99.90;;;;;;8226562;71;26716;-58
2022/10/24 20:06:39;;;;;;;5.37;2.17;;;18.60;99.90;;;;;;8228448;72;26246;-59
2022/10/24 20:16:42;;;;;;;7.90;2.43;;;18.60;99.90;;;;;;8226378;71;26258;-59
2022/10/24 20:26:44;;;;;;;8.10;3.13;;;18.60;99.90;;;;;;8228422;71;26266;-60
2022/10/24 20:36:47;;;;;;;8.80;2.37;;;18.60;99.90;;;;;;8209849;71;26262;-59
2022/10/24 20:46:52;;;;;;;13.07;2.83;;;18.50;99.90;;;;;;8197432;71;27411;-60
2022/10/24 20:56:54;;;;;;;11.93;2.60;;;18.50;99.90;;;;;;8198198;71;26272;-60
2022/10/24 21:06:56;;;;;;;9.40;2.27;;;18.40;99.90;;;;;;8205478;71;26991;-58
2022/10/24 21:16:59;;;;;;;10.23;2.13;;;18.40;99.90;;;;;;8195837;71;26262;-59
2022/10/24 21:27:01;;;;;;;8.33;2.03;;;18.40;99.90;;;;;;8213211;71;26258;-59
2022/10/24 21:37:04;;;;;;;9.00;2.07;;;18.40;99.90;;;;;;8210534;71;27391;-59
2022/10/24 21:47:07;;;;;;;13.17;2.10;;;18.40;99.90;;;;;;8207487;71;26300;-56
2022/10/24 21:57:09;;;;;;;7.07;2.20;;;18.40;99.90;;;;;;8206205;71;26289;-60
2022/10/24 22:07:12;;;;;;;4.27;1.60;;;18.30;99.90;;;;;;8202804;71;26275;-60
2022/10/24 22:17:15;;;;;;;4.63;1.70;;;18.30;99.90;;;;;;8189288;72;26888;-60
2022/10/24 22:27:17;;;;;;;4.70;1.60;;;18.30;99.90;;;;;;8194009;71;26340;-60
2022/10/24 22:37:26;;;;;;;7.07;2.07;;;18.30;99.90;;;;;;8209609;72;26257;-60
2022/10/24 22:47:57;;;;;;;7.90;2.60;;;18.30;99.90;;;;;;8210566;71;26272;-62
2022/10/24 22:58:00;;;;;;;8.97;3.73;;;18.20;99.90;;;;;;8205059;71;26324;-61
2022/10/24 23:08:05;;;;;;;10.23;2.57;;;18.20;99.90;;;;;;8207130;71;26405;-58
2022/10/24 23:18:09;;;;;;;14.47;4.00;;;18.20;99.90;;;;;;8223421;71;26289;-58
2022/10/24 23:28:20;;;;;;;10.13;2.53;;;18.20;99.90;;;;;;8209758;71;26258;-58
2022/10/24 23:38:24;;;;;;;12.43;2.50;;;18.20;99.90;;;;;;8202606;71;27334;-59
2022/10/24 23:48:49;;;;;;;5.07;1.30;;;18.20;99.90;;;;;;8171798;71;26254;-60
2022/10/24 23:58:52;;;;;;;7.97;2.27;;;18.20;99.90;;;;;;8108314;71;26335;-60
